createdAt,value
2022-08-25T00:02:58.897Z,23
2022-08-25T00:08:11.662Z,23
2022-08-25T00:13:26.412Z,23
2022-08-25T00:18:43.634Z,23
2022-08-25T00:23:55.732Z,23
2022-08-25T00:29:08.044Z,23
2022-08-25T00:34:20.096Z,22
2022-08-25T00:39:32.266Z,22
2022-08-25T00:44:45.084Z,22
2022-08-25T00:49:57.076Z,22
2022-08-25T00:55:09.173Z,22
2022-08-25T01:00:21.282Z,22
2022-08-25T01:05:33.538Z,22
2022-08-25T01:10:45.756Z,22
2022-08-25T01:15:58.189Z,22
2022-08-25T01:21:10.539Z,22
2022-08-25T01:26:31.396Z,22
2022-08-25T01:31:47.428Z,22
2022-08-25T01:36:59.519Z,22
2022-08-25T01:42:11.735Z,22
2022-08-25T01:47:24.039Z,22
2022-08-25T01:52:35.853Z,22
2022-08-25T01:57:47.874Z,22
2022-08-25T02:03:02.794Z,21
2022-08-25T02:08:27.185Z,21
2022-08-25T02:13:39.398Z,21
2022-08-25T02:18:51.752Z,21
2022-08-25T02:24:04.003Z,21
2022-08-25T02:29:15.894Z,21
2022-08-25T02:34:28.115Z,21
2022-08-25T02:39:40.079Z,21
2022-08-25T02:44:52.221Z,21
2022-08-25T02:50:04.245Z,21
2022-08-25T02:55:16.458Z,21
2022-08-25T03:00:28.668Z,21
2022-08-25T03:05:40.749Z,20
2022-08-25T03:10:52.937Z,20
2022-08-25T03:16:05.222Z,20
2022-08-25T03:21:44.521Z,20
2022-08-25T03:26:53.247Z,20
2022-08-25T03:32:05.457Z,20
2022-08-25T03:37:17.677Z,20
2022-08-25T03:42:29.668Z,20
2022-08-25T03:47:41.786Z,20
2022-08-25T03:52:53.914Z,20
2022-08-25T03:58:06.759Z,20
2022-08-25T04:03:18.945Z,20
2022-08-25T04:08:31.027Z,20
2022-08-25T04:13:43.477Z,20
2022-08-25T04:18:55.747Z,20
2022-08-25T04:24:07.967Z,20
2022-08-25T04:29:24.406Z,20
2022-08-25T04:34:37.130Z,20
2022-08-25T04:39:49.280Z,20
2022-08-25T04:45:01.447Z,20
2022-08-25T04:50:13.445Z,20
2022-08-25T04:55:25.706Z,20
2022-08-25T05:00:38.834Z,20
2022-08-25T05:05:50.765Z,20
2022-08-25T05:11:05.542Z,20
2022-08-25T05:16:17.408Z,20
2022-08-25T05:21:29.783Z,20
2022-08-25T05:26:42.000Z,20
2022-08-25T05:31:54.359Z,20
2022-08-25T05:37:12.601Z,20
2022-08-25T05:42:28.941Z,20
2022-08-25T05:47:41.215Z,20
2022-08-25T05:52:53.412Z,20
2022-08-25T05:58:06.185Z,20
2022-08-25T06:03:25.534Z,20
2022-08-25T06:08:40.603Z,21
2022-08-25T06:13:51.934Z,21
2022-08-25T06:19:04.207Z,21
2022-08-25T06:24:16.647Z,21
2022-08-25T06:29:29.451Z,21
2022-08-25T06:34:41.732Z,21
2022-08-25T06:39:54.169Z,22
2022-08-25T06:45:06.583Z,22
2022-08-25T06:50:19.079Z,22
2022-08-25T06:55:31.553Z,22
2022-08-25T07:00:44.089Z,22
2022-08-25T07:05:56.532Z,23
2022-08-25T07:11:17.895Z,23
2022-08-25T07:16:31.636Z,23
2022-08-25T07:21:46.953Z,23
2022-08-25T07:27:05.075Z,23
2022-08-25T07:32:17.802Z,23
2022-08-25T07:37:50.128Z,24
2022-08-25T07:43:00.112Z,24
2022-08-25T07:48:13.838Z,24
2022-08-25T07:53:33.748Z,24
2022-08-25T07:58:46.160Z,24
2022-08-25T08:04:04.167Z,25
2022-08-25T08:09:19.071Z,25
2022-08-25T08:14:31.698Z,25
2022-08-25T08:19:46.128Z,25
2022-08-25T08:24:58.135Z,26
2022-08-25T08:30:10.519Z,26
2022-08-25T08:35:23.024Z,25
2022-08-25T08:40:36.318Z,26
2022-08-25T08:45:50.267Z,26
2022-08-25T08:51:09.783Z,26
2022-08-25T08:56:31.505Z,27
2022-08-25T09:01:46.249Z,27
2022-08-25T09:07:10.242Z,27
2022-08-25T09:12:22.196Z,27
2022-08-25T09:17:34.675Z,28
2022-08-25T09:22:48.311Z,28
2022-08-25T09:28:00.801Z,28
2022-08-25T09:33:21.874Z,28
2022-08-25T09:38:34.602Z,28
2022-08-25T09:43:47.154Z,28
2022-08-25T09:49:03.572Z,29
2022-08-25T09:54:16.750Z,29
2022-08-25T09:59:36.354Z,29
2022-08-25T10:04:52.062Z,29
2022-08-25T10:10:05.075Z,29
2022-08-25T10:15:31.175Z,29
2022-08-25T10:20:45.368Z,29
2022-08-25T10:26:04.846Z,29
2022-08-25T10:31:23.224Z,30
2022-08-25T10:36:36.068Z,30
2022-08-25T10:41:53.877Z,30
2022-08-25T10:47:09.059Z,30
2022-08-25T10:52:21.678Z,30
2022-08-25T10:57:35.832Z,30
2022-08-25T11:02:48.714Z,30
2022-08-25T11:08:02.002Z,31
2022-08-25T11:13:14.374Z,31
2022-08-25T11:18:27.063Z,31
2022-08-25T11:23:40.408Z,32
2022-08-25T11:28:54.005Z,34
2022-08-25T11:34:10.373Z,36
2022-08-25T11:39:26.081Z,37
2022-08-25T11:44:55.414Z,38
2022-08-25T11:55:23.356Z,38
2022-08-25T12:05:50.660Z,38
2022-08-25T12:11:11.917Z,38
2022-08-25T12:37:06.915Z,32
2022-08-25T12:42:27.025Z,35
2022-08-25T12:47:45.261Z,36
2022-08-25T12:52:57.762Z,38
2022-08-25T12:58:10.949Z,38
2022-08-25T13:18:54.854Z,35
2022-08-25T13:24:07.120Z,35
2022-08-25T13:34:35.944Z,35
2022-08-25T13:39:59.546Z,36
2022-08-25T13:55:52.475Z,34
2022-08-25T14:16:34.139Z,33
2022-08-25T14:21:56.926Z,33
2022-08-25T14:42:40.576Z,32
2022-08-25T14:47:54.138Z,32
2022-08-25T15:03:29.496Z,32
2022-08-25T15:08:43.361Z,32
2022-08-25T15:19:07.665Z,32
2022-08-25T15:29:30.630Z,32
2022-08-25T15:34:43.552Z,32
2022-08-25T15:39:56.768Z,33
2022-08-25T15:45:09.582Z,33
2022-08-25T15:50:26.603Z,33
2022-08-25T16:00:57.171Z,33
2022-08-25T16:06:12.575Z,33
2022-08-25T16:17:00.004Z,32
2022-08-25T16:22:15.792Z,32
2022-08-25T16:32:40.222Z,32
2022-08-25T16:53:25.244Z,31
2022-08-25T16:58:40.911Z,31
2022-08-25T17:24:34.562Z,30
2022-08-25T17:29:47.714Z,30
2022-08-25T17:34:59.991Z,30
2022-08-25T17:40:15.361Z,29
2022-08-25T17:45:28.960Z,29
2022-08-25T17:50:42.549Z,29
2022-08-25T18:01:05.436Z,28
2022-08-25T18:06:17.439Z,28
2022-08-25T18:11:32.671Z,28
2022-08-25T18:16:44.970Z,28
2022-08-25T18:21:57.191Z,27
2022-08-25T18:27:11.120Z,27
2022-08-25T18:32:26.599Z,27
2022-08-25T18:37:45.300Z,27
2022-08-25T18:42:58.369Z,27
2022-08-25T18:48:11.990Z,27
2022-08-25T18:53:51.223Z,26
2022-08-25T18:59:08.580Z,26
2022-08-25T19:04:31.580Z,26
2022-08-25T19:09:44.586Z,26
2022-08-25T19:14:56.695Z,26
2022-08-25T19:20:11.920Z,26
2022-08-25T19:25:24.026Z,26
2022-08-25T19:30:36.217Z,26
2022-08-25T19:35:49.214Z,26
2022-08-25T19:41:01.804Z,26
2022-08-25T19:46:19.967Z,26
2022-08-25T19:51:32.704Z,26
2022-08-25T19:56:56.266Z,26
2022-08-25T20:02:07.283Z,25
2022-08-25T20:07:24.645Z,25
2022-08-25T20:12:38.675Z,25
2022-08-25T20:17:57.125Z,25
2022-08-25T20:23:10.825Z,25
2022-08-25T20:28:23.097Z,25
2022-08-25T20:33:36.092Z,25
2022-08-25T20:38:50.234Z,25
2022-08-25T20:44:02.175Z,25
2022-08-25T20:49:14.533Z,25
2022-08-25T20:54:27.255Z,25
2022-08-25T20:59:39.777Z,25
2022-08-25T21:04:52.745Z,25
2022-08-25T21:10:04.735Z,25
2022-08-25T21:15:18.815Z,25
2022-08-25T21:20:30.655Z,25
2022-08-25T21:25:43.393Z,25
2022-08-25T21:30:56.870Z,25
2022-08-25T21:36:09.165Z,25
2022-08-25T21:41:21.875Z,25
2022-08-25T21:46:34.366Z,24
2022-08-25T21:51:46.598Z,24
2022-08-25T21:56:59.087Z,24
2022-08-25T22:02:11.715Z,24
2022-08-25T22:07:25.337Z,24
2022-08-25T22:12:37.287Z,24
2022-08-25T22:17:50.468Z,24
2022-08-25T22:23:02.856Z,24
2022-08-25T22:28:15.616Z,24
2022-08-25T22:33:30.026Z,24
2022-08-25T22:38:41.697Z,24
2022-08-25T22:43:53.958Z,24
2022-08-25T22:49:09.408Z,24
2022-08-25T22:54:20.697Z,24
2022-08-25T22:59:33.826Z,24
2022-08-25T23:04:45.949Z,24
2022-08-25T23:10:09.983Z,24
2022-08-25T23:15:19.719Z,23
2022-08-25T23:20:33.299Z,23
2022-08-25T23:25:45.121Z,23
2022-08-25T23:31:00.063Z,23
2022-08-25T23:36:11.729Z,23
2022-08-25T23:41:24.322Z,23
2022-08-25T23:46:36.337Z,23
2022-08-25T23:51:49.166Z,23
2022-08-25T23:57:09.028Z,23
